createdAt,value
2019-06-27T00:00:02.530Z,15.6
2019-06-27T00:05:03.393Z,15.8
2019-06-27T00:10:02.913Z,15.8
2019-06-27T00:15:03.361Z,15.6
2019-06-27T00:20:02.816Z,15.6
2019-06-27T00:25:03.226Z,15.3
2019-06-27T00:30:02.691Z,15.6
2019-06-27T00:35:03.197Z,15.5
2019-06-27T00:40:02.755Z,15.3
2019-06-27T00:45:03.142Z,15.5
2019-06-27T00:50:02.701Z,15.6
2019-06-27T00:55:03.102Z,15.6
2019-06-27T01:00:02.565Z,15.5
2019-06-27T01:05:02.974Z,15.5
2019-06-27T01:10:02.426Z,15.3
2019-06-27T01:15:02.899Z,15.3
2019-06-27T01:20:03.402Z,15.3
2019-06-27T01:25:02.907Z,15.3
2019-06-27T01:30:03.346Z,15.3
2019-06-27T01:35:04.386Z,15.6
2019-06-27T01:40:03.013Z,15.6
2019-06-27T01:45:02.467Z,15.3
2019-06-27T01:50:02.883Z,15.5
2019-06-27T01:55:03.270Z,15.5
2019-06-27T02:00:02.706Z,15.5
2019-06-27T02:05:03.106Z,15.5
2019-06-27T02:10:02.942Z,15.5
2019-06-27T02:15:02.422Z,15.5
2019-06-27T02:20:02.874Z,15.6
2019-06-27T02:25:03.306Z,15.5
2019-06-27T02:30:02.095Z,15.3
2019-06-27T02:35:02.537Z,15.3
2019-06-27T02:40:03.004Z,15.5
2019-06-27T02:45:02.419Z,15.3
2019-06-27T02:50:02.898Z,15.3
2019-06-27T02:55:03.327Z,15.1
2019-06-27T03:00:02.827Z,15.3
2019-06-27T03:05:03.284Z,15.3
2019-06-27T03:10:02.790Z,15.5
2019-06-27T03:15:03.229Z,15.3
2019-06-27T03:20:02.641Z,15.3
2019-06-27T03:25:03.097Z,15.1
2019-06-27T03:30:02.603Z,15.1
2019-06-27T03:35:03.158Z,15.1
2019-06-27T03:40:02.689Z,15.0
2019-06-27T03:45:03.121Z,15.1
2019-06-27T03:50:02.545Z,15.1
2019-06-27T03:55:02.947Z,15.1
2019-06-27T04:00:03.369Z,15.1
2019-06-27T04:05:02.792Z,15.1
2019-06-27T04:10:03.193Z,15.1
2019-06-27T04:15:02.610Z,15.1
2019-06-27T04:20:03.057Z,15.1
2019-06-27T04:25:02.471Z,15.1
2019-06-27T04:30:02.554Z,15.1
2019-06-27T04:35:03.048Z,15.3
2019-06-27T04:40:02.471Z,15.3
2019-06-27T04:45:02.899Z,15.3
2019-06-27T04:50:03.363Z,15.3
2019-06-27T04:55:04.017Z,15.5
2019-06-27T05:00:02.120Z,15.3
2019-06-27T05:05:02.643Z,15.3
2019-06-27T05:10:03.076Z,15.1
2019-06-27T05:15:02.510Z,15.1
2019-06-27T05:20:03.431Z,15.0
2019-06-27T05:25:03.092Z,15.1
2019-06-27T05:30:09.182Z,15.1
2019-06-27T05:35:02.824Z,15.1
2019-06-27T05:40:03.277Z,14.8
2019-06-27T05:45:02.689Z,15.0
2019-06-27T05:50:03.132Z,15.0
2019-06-27T05:55:02.560Z,14.8
2019-06-27T06:00:03.010Z,14.5
2019-06-27T06:05:02.520Z,14.8
2019-06-27T06:10:02.929Z,14.8
2019-06-27T06:15:03.414Z,15.0
2019-06-27T06:20:02.956Z,15.1
2019-06-27T06:25:02.452Z,15.1
2019-06-27T06:30:02.891Z,15.5
2019-06-27T06:35:03.340Z,15.6
2019-06-27T06:40:02.851Z,15.6
2019-06-27T06:45:03.302Z,15.8
2019-06-27T06:50:02.812Z,16.2
2019-06-27T06:55:03.270Z,16.2
2019-06-27T07:00:02.693Z,16.0
2019-06-27T07:05:03.125Z,16.2
2019-06-27T07:10:02.789Z,16.6
2019-06-27T07:15:03.569Z,16.6
2019-06-27T07:20:03.124Z,17.2
2019-06-27T07:25:02.664Z,17.1
2019-06-27T07:30:02.529Z,17.5
2019-06-27T07:35:03.037Z,18.2
2019-06-27T07:40:02.553Z,18.2
2019-06-27T07:45:03.085Z,19.1
2019-06-27T07:50:02.599Z,19.2
2019-06-27T07:55:03.025Z,19.1
2019-06-27T08:00:02.466Z,19.7
2019-06-27T08:05:02.929Z,19.7
2019-06-27T08:10:03.335Z,19.7
2019-06-27T08:15:02.793Z,20.1
2019-06-27T08:20:03.261Z,21.2
2019-06-27T08:25:02.736Z,20.6
2019-06-27T08:30:03.275Z,20.3
2019-06-27T08:35:02.692Z,20.8
2019-06-27T08:40:03.143Z,21.2
2019-06-27T08:45:02.595Z,21.2
2019-06-27T08:50:03.108Z,21.5
2019-06-27T08:55:02.620Z,21.3
2019-06-27T09:00:03.075Z,22.1
2019-06-27T09:05:02.585Z,21.8
2019-06-27T09:10:03.135Z,21.3
2019-06-27T09:15:02.652Z,22.7
2019-06-27T09:20:03.212Z,22.5
2019-06-27T09:25:02.727Z,23.0
2019-06-27T09:30:03.158Z,24.2
2019-06-27T09:35:02.581Z,23.3
2019-06-27T09:40:03.336Z,22.7
2019-06-27T09:45:02.760Z,23.7
2019-06-27T09:50:03.297Z,24.0
2019-06-27T09:55:02.715Z,23.8
2019-06-27T10:00:02.401Z,24.8
2019-06-27T10:05:02.880Z,25.2
2019-06-27T10:10:03.405Z,23.8
2019-06-27T10:15:02.946Z,25.2
2019-06-27T10:20:03.396Z,26.1
2019-06-27T10:25:02.922Z,25.7
2019-06-27T10:30:03.455Z,25.8
2019-06-27T10:35:02.973Z,26.2
2019-06-27T10:40:02.405Z,25.6
2019-06-27T10:45:02.943Z,26.2
2019-06-27T10:50:03.474Z,25.6
2019-06-27T10:55:03.009Z,27.2
2019-06-27T11:00:02.520Z,25.6
2019-06-27T11:05:03.086Z,25.3
2019-06-27T11:10:02.516Z,25.1
2019-06-27T11:15:03.036Z,26.0
2019-06-27T11:20:02.596Z,26.2
2019-06-27T11:25:03.091Z,26.2
2019-06-27T11:30:02.627Z,26.2
2019-06-27T11:35:03.163Z,25.8
2019-06-27T11:40:02.783Z,26.2
2019-06-27T11:45:03.323Z,26.2
2019-06-27T11:50:02.764Z,26.2
2019-06-27T11:55:03.195Z,26.7
2019-06-27T12:00:02.718Z,28.0
2019-06-27T12:05:03.275Z,26.7
2019-06-27T12:10:02.775Z,26.5
2019-06-27T12:15:03.215Z,26.5
2019-06-27T12:20:02.762Z,27.5
2019-06-27T12:25:03.568Z,28.3
2019-06-27T12:30:03.153Z,28.1
2019-06-27T12:35:02.733Z,27.7
2019-06-27T12:40:03.175Z,27.7
2019-06-27T12:45:02.709Z,28.1
2019-06-27T12:50:03.518Z,27.8
2019-06-27T12:55:03.077Z,27.2
2019-06-27T13:00:02.509Z,27.5
2019-06-27T13:05:03.035Z,27.1
2019-06-27T13:10:01.834Z,28.0
2019-06-27T13:15:03.399Z,27.8
2019-06-27T13:20:02.987Z,28.3
2019-06-27T13:25:02.446Z,27.8
2019-06-27T13:30:03.031Z,27.7
2019-06-27T13:35:02.632Z,28.5
2019-06-27T13:40:04.780Z,28.1
2019-06-27T13:45:03.406Z,28.8
2019-06-27T13:50:02.890Z,28.8
2019-06-27T13:55:03.392Z,28.2
2019-06-27T14:00:02.922Z,28.6
2019-06-27T14:05:03.454Z,29.5
2019-06-27T14:10:03.000Z,28.7
2019-06-27T14:15:02.476Z,29.5
2019-06-27T14:20:03.044Z,29.5
2019-06-27T14:25:02.536Z,29.5
2019-06-27T14:30:03.026Z,29.6
2019-06-27T14:35:14.862Z,29.1
2019-06-27T14:40:02.658Z,29.0
2019-06-27T14:45:03.232Z,30.2
2019-06-27T14:50:02.729Z,29.6
2019-06-27T14:55:03.303Z,29.7
2019-06-27T15:00:02.794Z,28.7
2019-06-27T15:05:03.341Z,29.2
2019-06-27T15:10:02.865Z,28.7
2019-06-27T15:15:03.370Z,28.6
2019-06-27T15:20:02.901Z,28.5
2019-06-27T15:25:03.477Z,29.0
2019-06-27T15:30:03.094Z,29.2
2019-06-27T15:35:02.742Z,28.5
2019-06-27T15:40:03.225Z,29.2
2019-06-27T15:45:02.967Z,29.0
2019-06-27T15:50:02.468Z,28.0
2019-06-27T15:55:02.920Z,28.3
2019-06-27T16:00:03.364Z,28.2
2019-06-27T16:05:02.883Z,27.7
2019-06-27T16:10:03.424Z,27.2
2019-06-27T16:15:02.865Z,27.5
2019-06-27T16:20:03.424Z,27.1
2019-06-27T16:25:02.909Z,26.7
2019-06-27T16:30:03.387Z,27.7
2019-06-27T16:35:02.869Z,27.7
2019-06-27T16:40:03.343Z,27.5
2019-06-27T16:45:02.786Z,26.7
2019-06-27T16:50:03.282Z,26.1
2019-06-27T16:55:02.799Z,26.5
2019-06-27T17:00:03.380Z,25.3
2019-06-27T17:05:02.961Z,25.5
2019-06-27T17:10:02.507Z,26.6
2019-06-27T17:15:03.044Z,25.5
2019-06-27T17:20:02.557Z,25.0
2019-06-27T17:25:02.987Z,25.5
2019-06-27T17:30:02.514Z,25.2
2019-06-27T17:35:02.969Z,25.2
2019-06-27T17:40:02.403Z,24.2
2019-06-27T17:45:02.950Z,24.5
2019-06-27T17:50:03.479Z,23.2
2019-06-27T17:55:02.998Z,23.2
2019-06-27T18:00:02.557Z,23.0
2019-06-27T18:05:02.212Z,22.5
2019-06-27T18:10:02.686Z,22.7
2019-06-27T18:15:03.230Z,23.6
2019-06-27T18:20:02.757Z,22.1
2019-06-27T18:25:03.176Z,21.8
2019-06-27T18:30:02.641Z,21.2
2019-06-27T18:35:03.165Z,21.2
2019-06-27T18:40:02.606Z,21.0
2019-06-27T18:45:03.039Z,20.7
2019-06-27T18:50:02.535Z,20.7
2019-06-27T18:55:03.482Z,20.7
2019-06-27T19:00:02.909Z,20.6
2019-06-27T19:05:05.480Z,20.3
2019-06-27T19:10:03.137Z,20.2
2019-06-27T19:15:02.630Z,20.1
2019-06-27T19:20:03.190Z,20.1
2019-06-27T19:25:02.659Z,19.7
2019-06-27T19:30:03.212Z,19.5
2019-06-27T19:35:02.692Z,19.3
2019-06-27T19:40:03.172Z,19.1
2019-06-27T19:45:02.701Z,19.1
2019-06-27T19:50:03.250Z,19.0
2019-06-27T19:55:02.759Z,18.7
2019-06-27T20:00:03.262Z,18.5
2019-06-27T20:05:02.720Z,18.2
2019-06-27T20:10:03.170Z,18.1
2019-06-27T20:15:02.686Z,18.1
2019-06-27T20:20:03.135Z,17.8
2019-06-27T20:25:02.678Z,17.7
2019-06-27T20:30:03.205Z,17.3
2019-06-27T20:35:02.739Z,17.2
2019-06-27T20:40:03.179Z,17.1
2019-06-27T20:45:02.687Z,17.0
2019-06-27T20:50:03.156Z,16.7
2019-06-27T20:55:02.660Z,16.7
2019-06-27T21:00:03.192Z,16.6
2019-06-27T21:05:02.750Z,16.2
2019-06-27T21:10:03.366Z,16.2
2019-06-27T21:15:02.877Z,16.2
2019-06-27T21:20:03.329Z,16.0
2019-06-27T21:25:02.866Z,15.8
2019-06-27T21:30:03.415Z,15.8
2019-06-27T21:35:02.852Z,15.6
2019-06-27T21:40:03.348Z,15.5
2019-06-27T21:45:02.876Z,15.5
2019-06-27T21:50:03.314Z,15.1
2019-06-27T21:55:02.836Z,15.1
2019-06-27T22:00:03.304Z,15.1
2019-06-27T22:05:02.726Z,15.0
2019-06-27T22:10:03.473Z,15.0
2019-06-27T22:15:03.231Z,14.8
2019-06-27T22:20:14.626Z,14.6
2019-06-27T22:25:02.725Z,14.6
2019-06-27T22:30:03.177Z,14.5
2019-06-27T22:35:02.699Z,14.3
2019-06-27T22:40:03.233Z,14.3
2019-06-27T22:45:02.770Z,14.3
2019-06-27T22:50:03.309Z,14.3
2019-06-27T22:55:02.830Z,14.1
2019-06-27T23:00:08.450Z,14.1
2019-06-27T23:05:03.353Z,14.0
2019-06-27T23:10:02.921Z,14.0
2019-06-27T23:15:03.405Z,13.8
2019-06-27T23:20:02.824Z,13.8
2019-06-27T23:25:03.404Z,13.6
2019-06-27T23:30:02.852Z,13.6
2019-06-27T23:35:03.342Z,13.6
2019-06-27T23:40:13.560Z,13.6
2019-06-27T23:45:03.333Z,13.6
2019-06-27T23:50:02.797Z,13.6
2019-06-27T23:55:03.330Z,13.6
